PHASN EHRD-EHRD
Flight info
| Callsign | PHASN |
|---|---|
| Flight time | N/A |
| Altitude | 1000 |
| Route | VFR CIRCUITS |
| Aircraft | SF50/L-S/L |
Departure
| Time | 2026-05-05 18:04 |
|---|---|
| Airport | Rotterdam The Hague Airport (EHRD) |
Arrival
| Time | N/A |
|---|---|
| Airport | Rotterdam The Hague Airport (EHRD) |
| Time | Latitude | Longitude | Altitude | Speed | Heading |
|---|---|---|---|---|---|
| 2026-05-05 17:44 | 51.94865 | 4.43755 | -13 ft | 0 kts | 146° |
| 2026-05-05 17:54 | 51.94865 | 4.43756 | -13 ft | 1 kts | 146° |
| 2026-05-05 17:54 | 51.94864 | 4.43815 | -13 ft | 9 kts | 58° |
| 2026-05-05 17:54 | 51.94893 | 4.43869 | -13 ft | 5 kts | 13° |
| 2026-05-05 17:55 | 51.94948 | 4.43822 | -13 ft | 11 kts | 328° |
| 2026-05-05 17:55 | 51.95008 | 4.43758 | -12 ft | 9 kts | 327° |
| 2026-05-05 17:55 | 51.95053 | 4.43711 | -12 ft | 7 kts | 327° |
| 2026-05-05 17:55 | 51.95094 | 4.43668 | -12 ft | 9 kts | 326° |
| 2026-05-05 17:56 | 51.95153 | 4.43607 | -12 ft | 10 kts | 327° |
| 2026-05-05 17:56 | 51.95205 | 4.43551 | -12 ft | 9 kts | 327° |
| 2026-05-05 17:56 | 51.95261 | 4.43489 | -11 ft | 9 kts | 310° |
| 2026-05-05 17:56 | 51.95235 | 4.43382 | -11 ft | 17 kts | 238° |
| 2026-05-05 17:57 | 51.95195 | 4.43284 | -11 ft | 7 kts | 236° |
| 2026-05-05 17:57 | 51.95174 | 4.43235 | -11 ft | 8 kts | 236° |
| 2026-05-05 17:57 | 51.95131 | 4.43103 | -11 ft | 13 kts | 246° |
| 2026-05-05 17:57 | 51.95106 | 4.43005 | -11 ft | 5 kts | 262° |
| 2026-05-05 17:58 | 51.95106 | 4.43003 | -11 ft | 0 kts | 265° |
| 2026-05-05 17:58 | 51.95157 | 4.42894 | -11 ft | 18 kts | 330° |
| 2026-05-05 17:59 | 51.95219 | 4.42857 | -11 ft | 6 kts | 41° |
| 2026-05-05 17:59 | 51.95326 | 4.43118 | -11 ft | 60 kts | 57° |
| 2026-05-05 17:59 | 51.95648 | 4.43910 | 153 ft | 94 kts | 53° |
| 2026-05-05 17:59 | 51.96031 | 4.44868 | 451 ft | 112 kts | 55° |
| 2026-05-05 18:00 | 51.96518 | 4.46085 | 585 ft | 147 kts | 54° |
| 2026-05-05 18:00 | 51.97092 | 4.47475 | 557 ft | 153 kts | 50° |
| 2026-05-05 18:00 | 51.97959 | 4.47862 | 491 ft | 140 kts | 331° |
| 2026-05-05 18:00 | 51.98008 | 4.46466 | 553 ft | 136 kts | 232° |
| 2026-05-05 18:01 | 51.97451 | 4.45285 | 509 ft | 131 kts | 235° |
| 2026-05-05 18:01 | 51.96895 | 4.44062 | 507 ft | 140 kts | 236° |
| 2026-05-05 18:01 | 51.96302 | 4.42741 | 519 ft | 145 kts | 237° |
| 2026-05-05 18:01 | 51.95735 | 4.41438 | 489 ft | 130 kts | 238° |
| 2026-05-05 18:02 | 51.95277 | 4.40329 | 473 ft | 104 kts | 238° |
| 2026-05-05 18:02 | 51.94689 | 4.40031 | 454 ft | 90 kts | 132° |
| 2026-05-05 18:02 | 51.94516 | 4.40920 | 371 ft | 90 kts | 72° |
| 2026-05-05 18:02 | 51.94796 | 4.41817 | 292 ft | 89 kts | 55° |
| 2026-05-05 18:03 | 51.95140 | 4.42662 | 90 ft | 89 kts | 54° |
| 2026-05-05 18:03 | 51.95451 | 4.43438 | -11 ft | 71 kts | 57° |
| 2026-05-05 18:03 | 51.95737 | 4.44147 | 37 ft | 92 kts | 52° |
| 2026-05-05 18:03 | 51.95988 | 4.44776 | 147 ft | 111 kts | 53° |
| 2026-05-05 18:04 | 51.96587 | 4.46344 | 456 ft | 128 kts | 49° |
| 2026-05-05 18:04 | 51.97379 | 4.46366 | 555 ft | 153 kts | 311° |
| 2026-05-05 18:04 | 51.97174 | 4.44711 | 656 ft | 163 kts | 238° |
| 2026-05-05 18:04 | 51.96514 | 4.43292 | 497 ft | 155 kts | 235° |
| 2026-05-05 18:05 | 51.95890 | 4.41957 | 431 ft | 142 kts | 234° |
| 2026-05-05 18:05 | 51.95521 | 4.41097 | 453 ft | 132 kts | 239° |
| 2026-05-05 18:05 | 51.95035 | 4.39912 | 435 ft | 121 kts | 236° |
| 2026-05-05 18:05 | 51.94390 | 4.39456 | 455 ft | 95 kts | 141° |
| 2026-05-05 18:06 | 51.94268 | 4.40378 | 400 ft | 100 kts | 61° |
| 2026-05-05 18:06 | 51.94481 | 4.41064 | 369 ft | 102 kts | 55° |
| 2026-05-05 18:06 | 51.94991 | 4.42287 | 171 ft | 97 kts | 54° |
| 2026-05-05 18:06 | 51.95339 | 4.43164 | 27 ft | 85 kts | 52° |
| 2026-05-05 18:07 | 51.95599 | 4.43823 | -11 ft | 58 kts | 56° |
| 2026-05-05 18:07 | 51.95919 | 4.44598 | 89 ft | 101 kts | 56° |
| 2026-05-05 18:07 | 51.96394 | 4.45523 | 371 ft | 114 kts | 20° |
| 2026-05-05 18:07 | 51.97058 | 4.44796 | 492 ft | 146 kts | 285° |